createdAt,value
2023-11-13T00:00:22.691Z,99795.56
2023-11-13T00:02:49.307Z,99788.23
2023-11-13T00:08:43.827Z,99782.09
2023-11-13T00:11:10.710Z,99776.12
2023-11-13T00:13:37.687Z,99781.23
2023-11-13T00:16:04.952Z,99778.50
2023-11-13T00:18:33.070Z,99755.60
2023-11-13T00:21:00.227Z,99747.23
2023-11-13T00:23:28.731Z,99744.84
2023-11-13T00:25:55.442Z,99760.55
2023-11-13T00:28:22.496Z,99766.38
2023-11-13T00:30:49.128Z,99761.94
2023-11-13T00:33:17.245Z,99751.52
2023-11-13T00:35:45.393Z,99747.23
2023-11-13T00:38:12.201Z,99742.11
2023-11-13T00:40:38.836Z,99742.96
2023-11-13T00:43:06.090Z,99749.80
2023-11-13T00:45:33.108Z,99748.59
2023-11-13T00:47:59.782Z,99739.70
2023-11-13T00:50:26.439Z,99738.86
2023-11-13T00:52:53.006Z,99741.26
2023-11-13T00:55:19.667Z,99742.45
2023-11-13T00:57:46.955Z,99739.02
2023-11-13T01:00:14.590Z,99736.30
2023-11-13T01:02:41.139Z,99735.63
2023-11-13T01:05:08.249Z,99727.75
2023-11-13T01:08:39.023Z,99733.91
2023-11-13T01:11:05.616Z,99739.70
2023-11-13T01:13:32.186Z,99735.60
2023-11-13T01:15:58.879Z,99729.96
2023-11-13T01:18:25.545Z,99724.15
2023-11-13T01:20:52.196Z,99718.85
2023-11-13T01:23:18.933Z,99717.66
2023-11-13T01:25:48.820Z,99714.41
2023-11-13T01:28:16.996Z,99717.84
2023-11-13T01:30:43.591Z,99721.93
2023-11-13T01:33:10.162Z,99725.17
2023-11-13T01:35:36.812Z,99727.92
2023-11-13T01:38:03.428Z,99724.33
2023-11-13T01:40:30.059Z,99718.85
2023-11-13T01:42:56.585Z,99711.52
2023-11-13T01:45:23.090Z,99710.83
2023-11-13T01:47:50.587Z,99706.04
2023-11-13T01:50:17.313Z,99700.39
2023-11-13T01:52:44.011Z,99698.34
2023-11-13T01:55:13.361Z,99697.14
2023-11-13T01:57:42.068Z,99704.67
2023-11-13T02:00:09.227Z,99712.70
2023-11-13T02:02:36.045Z,99711.16
2023-11-13T02:05:03.038Z,99709.96
2023-11-13T02:08:41.231Z,99703.48
2023-11-13T02:11:08.763Z,99701.08
2023-11-13T02:13:35.454Z,99698.85
2023-11-13T02:16:02.122Z,99693.39
2023-11-13T02:18:29.016Z,99691.33
2023-11-13T02:20:57.685Z,99693.89
2023-11-13T02:23:24.304Z,99686.71
2023-11-13T02:34:27.133Z,99670.83
2023-11-13T02:36:54.074Z,99664.48
2023-11-13T02:39:22.507Z,99658.16
2023-11-13T02:41:50.069Z,99657.33
2023-11-13T02:44:16.626Z,99658.16
2023-11-13T02:46:43.674Z,99659.72
2023-11-13T02:49:10.436Z,99656.45
2023-11-13T02:51:37.031Z,99662.10
2023-11-13T02:54:04.585Z,99658.35
2023-11-13T02:56:31.606Z,99655.95
2023-11-13T02:58:58.773Z,99651.16
2023-11-13T03:01:25.879Z,99644.33
2023-11-13T03:03:52.751Z,99636.80
2023-11-13T03:06:23.227Z,99632.19
2023-11-13T03:08:49.763Z,99627.23
2023-11-13T03:11:17.452Z,99625.19
2023-11-13T03:13:44.034Z,99626.73
2023-11-13T03:16:11.198Z,99631.69
2023-11-13T03:18:37.878Z,99639.70
2023-11-13T03:21:05.558Z,99645.86
2023-11-13T03:23:32.112Z,99651.34
2023-11-13T03:26:04.115Z,99651.67
2023-11-13T03:28:31.857Z,99651.16
2023-11-13T03:30:58.618Z,99655.76
2023-11-13T03:33:26.220Z,99651.84
2023-11-13T03:35:52.989Z,99652.52
2023-11-13T03:50:40.906Z,99669.25
2023-11-13T03:53:07.409Z,99662.79
2023-11-13T03:55:34.114Z,99661.07
2023-11-13T04:06:50.670Z,99643.98
2023-11-13T04:09:17.728Z,99632.02
2023-11-13T04:11:46.480Z,99620.08
2023-11-13T04:14:13.181Z,99607.42
2023-11-13T04:16:39.906Z,99607.75
2023-11-13T04:19:06.633Z,99607.42
2023-11-13T04:21:33.365Z,99613.41
2023-11-13T04:24:00.397Z,99608.30
2023-11-13T04:26:27.373Z,99601.63
2023-11-13T04:28:54.738Z,99607.27
2023-11-13T04:31:21.661Z,99612.73
2023-11-13T04:33:49.836Z,99611.02
2023-11-13T04:36:16.838Z,99615.96
2023-11-13T04:38:43.474Z,99617.17
2023-11-13T04:41:11.879Z,99616.98
2023-11-13T04:43:39.332Z,99620.06
2023-11-13T04:46:07.414Z,99624.69
2023-11-13T04:48:33.987Z,99629.13
2023-11-13T04:51:01.069Z,99636.64
2023-11-13T04:53:28.016Z,99638.02
2023-11-13T04:55:54.671Z,99641.09
2023-11-13T04:58:22.413Z,99642.28
2023-11-13T05:00:49.563Z,99639.03
2023-11-13T05:03:16.606Z,99633.90
2023-11-13T05:08:39.713Z,99627.92
2023-11-13T05:11:07.533Z,99623.14
2023-11-13T05:13:34.324Z,99618.20
2023-11-13T05:16:01.473Z,99625.70
2023-11-13T05:18:28.136Z,99626.21
2023-11-13T05:20:55.012Z,99628.45
2023-11-13T05:23:21.658Z,99609.64
2023-11-13T05:25:48.488Z,99601.95
2023-11-13T05:28:17.192Z,99606.22
2023-11-13T05:30:44.312Z,99610.33
2023-11-13T05:33:11.022Z,99606.74
2023-11-13T05:35:37.568Z,99610.50
2023-11-13T05:38:04.862Z,99611.86
2023-11-13T05:40:31.743Z,99620.40
2023-11-13T05:42:58.368Z,99638.88
2023-11-13T05:45:24.986Z,99649.45
2023-11-13T05:47:52.861Z,99655.61
2023-11-13T05:50:19.594Z,99654.58
2023-11-13T05:52:48.441Z,99654.27
2023-11-13T05:55:15.214Z,99659.55
2023-11-13T05:57:41.921Z,99657.30
2023-11-13T06:00:12.283Z,99673.55
2023-11-13T06:02:39.298Z,99676.64
2023-11-13T06:05:06.157Z,99674.23
2023-11-13T06:08:40.039Z,99683.98
2023-11-13T06:11:06.545Z,99688.42
2023-11-13T06:13:34.014Z,99678.69
2023-11-13T06:16:26.031Z,99673.91
2023-11-13T06:18:54.496Z,99668.95
2023-11-13T06:21:21.264Z,99656.30
2023-11-13T06:23:47.754Z,99647.58
2023-11-13T06:26:14.768Z,99643.14
2023-11-13T06:28:41.666Z,99642.30
2023-11-13T06:31:11.452Z,99640.05
2023-11-13T06:33:39.314Z,99630.66
2023-11-13T06:36:12.557Z,99640.25
2023-11-13T06:38:39.127Z,99641.79
2023-11-13T06:41:06.405Z,99648.42
2023-11-13T06:43:34.575Z,99653.39
2023-11-13T06:46:01.797Z,99652.19
2023-11-13T06:48:28.722Z,99653.90
2023-11-13T06:50:55.347Z,99661.25
2023-11-13T06:53:24.667Z,99658.52
2023-11-13T06:55:51.321Z,99654.07
2023-11-13T06:58:18.038Z,99652.88
2023-11-13T07:00:45.624Z,99651.17
2023-11-13T07:03:14.573Z,99651.35
2023-11-13T07:08:43.658Z,99646.73
2023-11-13T07:11:15.991Z,99641.27
2023-11-13T07:13:42.716Z,99644.16
2023-11-13T07:16:10.572Z,99645.17
2023-11-13T07:18:37.657Z,99646.39
2023-11-13T07:21:07.419Z,99651.01
2023-11-13T07:23:34.123Z,99647.58
2023-11-13T07:26:00.641Z,99641.77
2023-11-13T07:28:27.843Z,99642.61
2023-11-13T07:30:56.175Z,99640.05
2023-11-13T07:33:22.985Z,99637.50
2023-11-13T07:35:49.527Z,99628.45
2023-11-13T07:38:16.013Z,99631.00
2023-11-13T07:40:42.645Z,99641.27
2023-11-13T07:43:10.330Z,99636.64
2023-11-13T07:45:39.529Z,99634.94
2023-11-13T07:48:06.593Z,99639.73
2023-11-13T07:50:33.281Z,99642.80
2023-11-13T07:53:20.381Z,99652.20
2023-11-13T07:55:47.815Z,99662.29
2023-11-13T07:58:14.970Z,99670.98
2023-11-13T08:00:41.475Z,99680.39
2023-11-13T08:03:08.125Z,99683.98
2023-11-13T08:08:36.250Z,99682.63
2023-11-13T08:11:03.785Z,99684.84
2023-11-13T08:13:30.371Z,99684.32
2023-11-13T08:15:57.057Z,99682.96
2023-11-13T08:18:24.234Z,99673.55
2023-11-13T08:20:51.154Z,99676.30
2023-11-13T08:23:17.851Z,99677.48
2023-11-13T08:25:45.723Z,99669.45
2023-11-13T08:28:15.838Z,99655.26
2023-11-13T08:30:44.830Z,99647.06
2023-11-13T08:33:12.379Z,99636.62
2023-11-13T08:35:39.484Z,99635.77
2023-11-13T08:38:09.897Z,99628.23
2023-11-13T08:40:37.775Z,99629.10
2023-11-13T08:43:07.477Z,99624.30
2023-11-13T08:45:37.732Z,99619.85
2023-11-13T08:48:11.305Z,99611.30
2023-11-13T08:50:38.852Z,99600.85
2023-11-13T08:53:06.512Z,99595.70
2023-11-13T08:55:36.865Z,99590.38
2023-11-13T08:58:05.202Z,99585.23
2023-11-13T09:00:42.114Z,99580.09
2023-11-13T09:03:12.931Z,99583.66
2023-11-13T09:08:38.354Z,99589.66
2023-11-13T09:11:06.356Z,99598.88
2023-11-13T09:13:32.973Z,99594.77
2023-11-13T09:18:28.433Z,99592.36
2023-11-13T09:20:59.435Z,99587.58
2023-11-13T09:23:28.079Z,99596.64
2023-11-13T09:25:55.567Z,99598.85
2023-11-13T09:28:22.666Z,99594.21
2023-11-13T09:30:49.445Z,99570.95
2023-11-13T09:33:18.374Z,99568.21
2023-11-13T09:35:47.402Z,99574.53
2023-11-13T09:38:14.122Z,99584.97
2023-11-13T09:40:40.890Z,99591.98
2023-11-13T09:43:35.289Z,99586.66
2023-11-13T09:46:09.975Z,99564.56
2023-11-13T09:48:45.346Z,99561.81
2023-11-13T09:51:27.778Z,99559.58
2023-11-13T09:53:59.861Z,99558.19
2023-11-13T09:56:30.690Z,99552.88
2023-11-13T09:59:03.596Z,99546.69
2023-11-13T10:01:31.356Z,99543.94
2023-11-13T10:03:59.510Z,99539.64
2023-11-13T10:06:28.988Z,99525.92
2023-11-13T10:08:56.357Z,99505.19
2023-11-13T10:11:26.503Z,99503.30
2023-11-13T10:13:53.217Z,99493.36
2023-11-13T10:16:22.602Z,99484.77
2023-11-13T10:25:19.383Z,99490.62
2023-11-13T10:27:57.078Z,99497.11
2023-11-13T10:30:23.620Z,99485.41
2023-11-13T10:32:50.267Z,99486.41
2023-11-13T10:35:36.545Z,99482.11
2023-11-13T10:38:09.279Z,99467.50
2023-11-13T10:40:40.447Z,99455.48
2023-11-13T10:43:09.178Z,99452.70
2023-11-13T10:45:36.079Z,99447.71
2023-11-13T10:48:04.015Z,99449.75
2023-11-13T10:50:31.807Z,99443.75
2023-11-13T10:53:00.327Z,99442.55
2023-11-13T10:55:28.892Z,99436.72
2023-11-13T10:57:56.368Z,99430.36
2023-11-13T11:00:23.425Z,99422.81
2023-11-13T11:02:55.169Z,99413.38
2023-11-13T11:05:23.977Z,99408.91
2023-11-13T11:07:54.079Z,99404.27
2023-11-13T11:10:26.512Z,99390.21
2023-11-13T11:13:10.270Z,99385.58
2023-11-13T11:16:07.380Z,99369.77
2023-11-13T11:18:57.347Z,99358.27
2023-11-13T11:21:37.687Z,99352.91
2023-11-13T11:24:21.189Z,99343.97
2023-11-13T11:26:55.951Z,99336.23
2023-11-13T11:29:42.003Z,99332.44
2023-11-13T11:32:15.186Z,99331.06
2023-11-13T11:34:50.101Z,99326.92
2023-11-13T11:37:17.648Z,99320.73
2023-11-13T11:39:50.403Z,99319.99
2023-11-13T11:42:18.273Z,99309.52
2023-11-13T11:45:00.489Z,99305.71
2023-11-13T11:47:29.060Z,99297.95
2023-11-13T11:49:58.090Z,99289.16
2023-11-13T11:52:50.175Z,99283.45
2023-11-13T11:55:18.377Z,99275.27
2023-11-13T11:57:46.316Z,99269.53
2023-11-13T12:00:20.718Z,99265.46
2023-11-13T12:02:49.078Z,99264.82
2023-11-13T12:08:39.662Z,99250.08
2023-11-13T12:11:08.586Z,99250.14
2023-11-13T12:13:35.239Z,99237.34
2023-11-13T12:16:02.174Z,99230.90
2023-11-13T12:18:30.242Z,99226.02
2023-11-13T12:20:57.898Z,99221.98
2023-11-13T12:23:24.501Z,99220.23
2023-11-13T12:25:51.408Z,99216.73
2023-11-13T12:28:18.535Z,99217.19
2023-11-13T12:30:45.146Z,99218.30
2023-11-13T12:33:13.316Z,99214.10
2023-11-13T12:35:40.813Z,99199.07
2023-11-13T12:38:08.562Z,99190.59
2023-11-13T12:40:36.623Z,99184.66
2023-11-13T12:43:04.933Z,99178.75
2023-11-13T12:45:32.790Z,99171.80
2023-11-13T12:48:01.415Z,99169.50
2023-11-13T12:50:28.005Z,99163.23
2023-11-13T12:52:56.024Z,99156.97
2023-11-13T12:55:24.650Z,99152.58
2023-11-13T12:57:54.970Z,99150.95
2023-11-13T13:00:22.479Z,99143.48
2023-11-13T13:02:54.169Z,99137.58
2023-11-13T13:08:29.161Z,99127.30
2023-11-13T13:10:55.745Z,99121.21
2023-11-13T13:13:24.146Z,99116.14
2023-11-13T13:15:51.737Z,99110.20
2023-11-13T13:18:18.354Z,99102.42
2023-11-13T13:20:45.263Z,99106.48
2023-11-13T13:23:12.054Z,99098.19
2023-11-13T13:25:41.313Z,99096.94
2023-11-13T13:28:10.951Z,99088.27
2023-11-13T13:30:40.318Z,99085.45
2023-11-13T13:33:11.655Z,99081.25
2023-11-13T13:35:39.968Z,99077.35
2023-11-13T13:38:06.962Z,99072.10
2023-11-13T13:40:35.027Z,99076.50
2023-11-13T13:43:02.364Z,99067.64
2023-11-13T13:45:29.435Z,99062.90
2023-11-13T13:47:58.322Z,99063.04
2023-11-13T14:04:13.249Z,99028.09
2023-11-13T14:19:45.713Z,99048.48
2023-11-13T14:22:13.198Z,99047.11
2023-11-13T14:24:41.300Z,99029.12
2023-11-13T14:27:09.226Z,99032.19
2023-11-13T14:29:35.856Z,99031.97
2023-11-13T14:32:03.203Z,99015.40
2023-11-13T14:34:30.740Z,99011.73
2023-11-13T14:36:57.607Z,98999.65
2023-11-13T14:39:26.825Z,98996.17
2023-11-13T14:41:53.340Z,98994.79
2023-11-13T14:44:19.905Z,98998.84
2023-11-13T14:46:47.046Z,98990.39
2023-11-13T14:49:13.709Z,98983.77
2023-11-13T14:51:40.267Z,98987.16
2023-11-13T14:54:07.326Z,98982.14
2023-11-13T14:56:33.877Z,98973.16
2023-11-13T14:59:02.905Z,98965.05
2023-11-13T15:08:30.404Z,98946.89
2023-11-13T15:10:57.077Z,98942.42
2023-11-13T15:13:23.788Z,98941.34
2023-11-13T15:15:52.671Z,98927.34
2023-11-13T15:18:19.581Z,98912.80
2023-11-13T15:20:47.269Z,98908.95
2023-11-13T15:23:25.818Z,98902.65
2023-11-13T15:26:01.701Z,98899.79
2023-11-13T15:28:28.354Z,98905.08
2023-11-13T15:30:54.981Z,98891.89
2023-11-13T15:33:21.591Z,98897.12
2023-11-13T15:35:48.137Z,98904.27
2023-11-13T15:38:17.524Z,98895.93
2023-11-13T15:40:44.188Z,98885.32
2023-11-13T15:43:10.800Z,98868.17
2023-11-13T15:45:37.334Z,98860.54
2023-11-13T15:48:05.592Z,98871.14
2023-11-13T15:50:33.945Z,98858.69
2023-11-13T15:53:00.589Z,98856.77
2023-11-13T15:55:27.205Z,98866.53
2023-11-13T15:57:53.824Z,98871.77
2023-11-13T16:00:20.308Z,98871.70
2023-11-13T16:02:48.178Z,98868.20
2023-11-13T16:08:39.726Z,98866.41
2023-11-13T16:11:06.422Z,98861.08
2023-11-13T16:13:33.513Z,98857.25
2023-11-13T16:16:00.318Z,98851.89
2023-11-13T16:18:26.910Z,98849.82
2023-11-13T16:20:53.810Z,98856.02
2023-11-13T16:23:22.170Z,98848.70
2023-11-13T16:25:54.327Z,98845.14
2023-11-13T16:28:22.847Z,98849.24
2023-11-13T16:30:49.605Z,98850.06
2023-11-13T16:33:16.255Z,98850.91
2023-11-13T16:35:45.413Z,98858.90
2023-11-13T16:38:12.995Z,98861.25
2023-11-13T16:40:40.074Z,98859.15
2023-11-13T16:43:06.719Z,98857.27
2023-11-13T16:45:33.529Z,98854.67
2023-11-13T16:48:01.200Z,98853.62
2023-11-13T16:50:27.976Z,98856.86
2023-11-13T16:52:54.893Z,98854.38
2023-11-13T16:55:21.500Z,98859.36
2023-11-13T16:57:48.129Z,98857.94
2023-11-13T17:00:16.618Z,98866.35
2023-11-13T17:03:01.314Z,98851.28
2023-11-13T17:08:34.267Z,98853.64
2023-11-13T17:11:00.989Z,98851.40
2023-11-13T17:13:27.873Z,98849.81
2023-11-13T17:15:54.673Z,98860.63
2023-11-13T17:18:21.412Z,98873.17
2023-11-13T17:20:48.074Z,98859.83
2023-11-13T17:23:15.186Z,98858.73
2023-11-13T17:25:44.002Z,98868.11
2023-11-13T17:28:10.812Z,98864.38
2023-11-13T17:30:37.452Z,98854.28
2023-11-13T17:33:05.145Z,98854.66
2023-11-13T17:35:31.802Z,98853.81
2023-11-13T17:37:58.665Z,98857.13
2023-11-13T17:40:25.288Z,98847.31
2023-11-13T17:42:52.129Z,98850.77
2023-11-13T17:45:20.867Z,98851.27
2023-11-13T17:47:47.656Z,98853.11
2023-11-13T17:50:14.330Z,98855.29
2023-11-13T17:52:42.173Z,98858.18
2023-11-13T17:55:11.142Z,98858.97
2023-11-13T17:57:38.821Z,98858.34
2023-11-13T18:00:11.954Z,98858.05
2023-11-13T18:02:39.632Z,98854.02
2023-11-13T18:05:08.006Z,98860.98
2023-11-13T18:08:41.320Z,98857.00
2023-11-13T18:11:11.642Z,98856.30
2023-11-13T18:13:38.706Z,98864.54
2023-11-13T18:16:06.005Z,98863.50
2023-11-13T18:18:33.206Z,98859.36
2023-11-13T18:21:00.342Z,98844.52
2023-11-13T18:23:27.055Z,98859.11
2023-11-13T18:25:56.285Z,98859.73
2023-11-13T18:28:24.869Z,98867.44
2023-11-13T18:30:57.439Z,98875.18
2023-11-13T18:33:30.269Z,98880.52
2023-11-13T18:35:58.435Z,98911.73
2023-11-13T18:38:27.946Z,99029.36
2023-11-13T18:40:54.776Z,99013.36
2023-11-13T18:43:21.383Z,98996.67
2023-11-13T18:45:51.365Z,98996.14
2023-11-13T18:48:18.937Z,98987.34
2023-11-13T18:50:45.605Z,98976.98
2023-11-13T18:53:12.319Z,98972.83
2023-11-13T18:55:38.854Z,98963.72
2023-11-13T18:58:06.699Z,98971.52
2023-11-13T19:00:34.196Z,98981.68
2023-11-13T19:03:00.759Z,98989.52
2023-11-13T19:08:52.509Z,98987.02
2023-11-13T19:11:19.779Z,98985.50
2023-11-13T19:13:48.910Z,98987.30
2023-11-13T19:16:14.822Z,98978.70
2023-11-13T19:18:41.328Z,98982.35
2023-11-13T19:21:09.365Z,98987.42
2023-11-13T19:23:35.338Z,98987.17
2023-11-13T19:26:01.358Z,98991.36
2023-11-13T19:28:27.226Z,98987.23
2023-11-13T19:30:53.446Z,98986.73
2023-11-13T19:33:19.269Z,98978.88
2023-11-13T19:35:46.232Z,98987.48
2023-11-13T19:38:12.102Z,99001.77
2023-11-13T19:40:38.984Z,99011.92
2023-11-13T19:43:07.009Z,99012.57
2023-11-13T19:45:34.862Z,99013.56
2023-11-13T19:48:01.206Z,99018.33
2023-11-13T19:50:28.237Z,99026.70
2023-11-13T19:52:54.439Z,99038.16
2023-11-13T19:55:21.059Z,99046.34
2023-11-13T19:57:47.016Z,99052.79
2023-11-13T20:00:16.622Z,99051.51
2023-11-13T20:02:43.248Z,99061.91
2023-11-13T20:05:09.333Z,99072.78
2023-11-13T20:08:39.400Z,99090.54
2023-11-13T20:11:07.860Z,99105.53
2023-11-13T20:13:34.940Z,99099.23
2023-11-13T20:16:02.909Z,99099.06
2023-11-13T20:18:36.420Z,99097.46
2023-11-13T20:33:33.261Z,99107.17
2023-11-13T20:36:00.353Z,99116.70
2023-11-13T20:38:27.547Z,99112.59
2023-11-13T20:40:54.423Z,99110.55
2023-11-13T20:43:21.166Z,99119.89
2023-11-13T20:45:48.404Z,99126.32
2023-11-13T20:48:15.314Z,99142.60
2023-11-13T20:50:41.862Z,99150.95
2023-11-13T20:53:10.010Z,99145.19
2023-11-13T20:55:36.899Z,99149.25
2023-11-13T20:58:08.383Z,99146.55
2023-11-13T21:00:35.071Z,99151.76
2023-11-13T21:03:01.700Z,99155.40
2023-11-13T21:08:36.321Z,99170.86
2023-11-13T21:11:06.873Z,99181.95
2023-11-13T21:23:14.482Z,99192.39
2023-11-13T21:25:41.230Z,99201.16
2023-11-13T21:28:07.986Z,99208.16
2023-11-13T21:30:35.645Z,99205.82
2023-11-13T21:33:02.140Z,99217.08
2023-11-13T21:35:28.714Z,99216.67
2023-11-13T21:37:55.345Z,99222.64
2023-11-13T21:40:21.956Z,99226.86
2023-11-13T21:42:48.706Z,99236.80
2023-11-13T21:45:18.213Z,99239.10
2023-11-13T21:47:45.609Z,99241.10
2023-11-13T21:50:13.534Z,99250.45
2023-11-13T21:52:42.118Z,99252.56
2023-11-13T21:55:09.205Z,99251.37
2023-11-13T21:57:36.960Z,99251.05
2023-11-13T22:00:04.174Z,99262.78
2023-11-13T22:02:30.780Z,99268.85
2023-11-13T22:04:57.522Z,99273.70
2023-11-13T22:08:39.410Z,99284.33
2023-11-13T22:11:06.047Z,99275.06
2023-11-13T22:13:33.538Z,99273.89
2023-11-13T22:16:00.723Z,99278.41
2023-11-13T22:18:27.721Z,99289.98
2023-11-13T22:20:54.781Z,99295.73
2023-11-13T22:23:21.396Z,99291.96
2023-11-13T22:25:48.169Z,99288.77
2023-11-13T22:28:14.772Z,99291.25
2023-11-13T22:30:41.590Z,99297.16
2023-11-13T22:33:09.966Z,99310.11
2023-11-13T22:35:36.598Z,99318.24
2023-11-13T22:38:05.427Z,99326.41
2023-11-13T22:40:32.503Z,99326.89
2023-11-13T22:42:59.991Z,99326.35
2023-11-13T22:45:27.299Z,99315.83
2023-11-13T22:47:54.213Z,99313.05
2023-11-13T22:50:21.125Z,99313.31
2023-11-13T22:52:47.710Z,99319.42
2023-11-13T22:55:14.498Z,99322.09
2023-11-13T22:57:41.012Z,99334.02
2023-11-13T23:00:16.965Z,99328.73
2023-11-13T23:02:43.629Z,99329.98
2023-11-13T23:05:10.550Z,99340.16
2023-11-13T23:07:37.420Z,99347.94
2023-11-13T23:10:06.414Z,99348.67
2023-11-13T23:12:33.150Z,99350.08
2023-11-13T23:14:59.941Z,99346.86
2023-11-13T23:17:26.576Z,99345.49
2023-11-13T23:19:53.281Z,99354.77
2023-11-13T23:22:19.867Z,99358.22
2023-11-13T23:24:46.477Z,99356.33
2023-11-13T23:27:13.090Z,99355.29
2023-11-13T23:29:40.481Z,99354.60
2023-11-13T23:32:07.450Z,99354.26
2023-11-13T23:34:34.063Z,99360.11
2023-11-13T23:37:00.634Z,99359.27
2023-11-13T23:39:27.561Z,99368.05
2023-11-13T23:41:54.189Z,99374.08
2023-11-13T23:44:20.643Z,99375.34
2023-11-13T23:46:48.839Z,99370.71
2023-11-13T23:49:15.753Z,99368.55
2023-11-13T23:51:42.352Z,99376.48
2023-11-13T23:54:08.912Z,99376.67
2023-11-13T23:56:35.409Z,99379.44
2023-11-13T23:59:02.478Z,99379.14
